Sunday, September 15, 2019, 12:39 PM EDT
Back to Local

KASH, Nashua, Boire Field Airport

Location: Nashua, NH, United States Lat: 42.782
Local Time: 12:39 PM EDT (16:39 GMT) Lon: -71.515
Time Zone: US/Eastern Elev: 200 ft

Show me the last for .
Show Decoded

2019-09-15 10:56 METAR KASH 151456Z 30008KT 10SM CLR 22/14 A3012 RMK AO2 SLP202 T02170139 58007 =
2019-09-15 08:56 METAR KASH 151256Z 25005KT 10SM CLR 17/17 A3014 RMK AO2 SLP209 T01720167 =
2019-09-15 07:56 METAR KASH 151156Z VRB04KT 10SM CLR 16/16 A3014 RMK AO2 SLP210 60001 70018
                 T01610161 10161 20122 50001 =
2019-09-15 06:52 METAR KASH 151052Z 00000KT 4SM BR FEW002 13/13 A3014 RMK AO2 =
2019-09-15 06:49 METAR KASH 151049Z 00000KT 1 1/2SM BR FEW002 13/13 A3014 RMK AO2 VIS 1/2V5 =
2019-09-15 06:47 METAR KASH 151047Z AUTO 00000KT 3/4SM BR VV002 13/13 A3014 RMK AO2 VIS 1/4V5 =
2019-09-15 06:33 METAR KASH 151033Z AUTO 00000KT 1/4SM FG VV002 13/13 A3014 RMK AO2 =
2019-09-15 06:26 METAR KASH 151026Z AUTO 00000KT 1/4SM FG CLR 13/13 A3014 RMK AO2 =
2019-09-15 06:24 METAR KASH 151024Z AUTO 00000KT 1/2SM FG VV001 13/13 A3014 RMK AO2 =
2019-09-15 06:22 METAR KASH 151022Z AUTO 00000KT 3/4SM BR VV002 13/13 A3014 RMK AO2 TSNO =
2019-09-15 06:19 METAR KASH 151019Z AUTO 00000KT 1 1/2SM BR FEW002 13/13 A3014 RMK AO2 =
2019-09-15 06:16 METAR KASH 151016Z AUTO 00000KT 6SM BR SCT002 13/13 A3014 RMK AO2 =
2019-09-15 06:07 METAR KASH 151007Z AUTO 00000KT 5SM BR BKN002 13/13 A3014 RMK AO2 =
2019-09-15 06:00 METAR KASH 151000Z AUTO 00000KT 2SM BR BKN002 13/13 A3014 RMK AO2 =
2019-09-15 05:56 METAR KASH 150956Z AUTO 00000KT 1SM BR OVC002 13/13 A3014 RMK AO2 SLP209 P0001
                 T01330133 =
2019-09-15 05:54 METAR KASH 150954Z AUTO 00000KT 3/4SM BR OVC002 13/13 A3014 RMK AO2 P0001 =
2019-09-15 05:43 METAR KASH 150943Z AUTO 00000KT 1/2SM FG OVC002 13/13 A3013 RMK AO2 P0001 =
2019-09-15 05:16 METAR KASH 150916Z AUTO 00000KT 3/4SM BR OVC002 14/14 A3013 RMK AO2 =
2019-09-15 04:56 METAR KASH 150856Z AUTO 00000KT 1/4SM FG OVC002 14/14 A3012 RMK AO2 SLP205
                 T01440144 52002 =
2019-09-15 04:53 METAR KASH 150853Z AUTO 00000KT 1/2SM FG OVC002 14/14 A3012 RMK AO2 =
2019-09-15 04:25 METAR KASH 150825Z AUTO 00000KT 1/4SM FG BKN002 14/14 A3012 RMK AO2 =
2019-09-15 04:12 METAR KASH 150812Z AUTO 00000KT 1/2SM FG BKN002 14/14 A3013 RMK AO2 =
2019-09-15 04:03 METAR KASH 150803Z AUTO 00000KT 3/4SM BR VV002 14/14 A3012 RMK AO2 =
2019-09-15 03:56 METAR KASH 150756Z AUTO 00000KT 1 1/2SM BR BKN002 15/15 A3012 RMK AO2 SLP203
                 T01500150 =
2019-09-15 03:54 METAR KASH 150754Z AUTO 00000KT 1 1/4SM BR BKN002 15/15 A3012 RMK AO2 =
2019-09-15 03:49 METAR KASH 150749Z AUTO 00000KT 3/4SM BR OVC002 15/15 A3012 RMK AO2 =
2019-09-15 03:40 METAR KASH 150740Z AUTO 00000KT 1/2SM FG OVC002 15/15 A3011 RMK AO2 =
2019-09-15 03:28 METAR KASH 150728Z AUTO 18003KT 1/4SM FG OVC002 16/16 A3011 RMK AO2 =
2019-09-15 02:56 METAR KASH 150656Z AUTO 00000KT 1/2SM FG OVC002 16/16 A3012 RMK AO2 SLP203
                 T01560156 =
2019-09-15 02:16 METAR KASH 150616Z AUTO 00000KT 1/4SM FG BKN002 16/16 A3012 RMK AO2 =
2019-09-15 02:06 METAR KASH 150606Z AUTO 10004KT 1/2SM FG VV002 16/16 A3012 RMK AO2 VIS 1/4V4 =
2019-09-15 02:03 METAR KASH 150603Z AUTO 10003KT 1SM BR VV003 16/16 A3012 RMK AO2 VIS 1/4V4 =
2019-09-15 01:56 METAR KASH 150556Z AUTO 00000KT 1 1/4SM BR CLR 17/17 A3012 RMK AO2 VIS 3/4V5
                 SLP205 60002 T01670167 10183 20167 56008 =
2019-09-15 01:49 METAR KASH 150549Z AUTO 00000KT 1 3/4SM BR CLR 17/17 A3013 RMK AO2 VIS 1/2V5 =
2019-09-15 01:15 METAR KASH 150515Z AUTO 00000KT 10SM SCT003 18/18 A3013 RMK AO2 =
2019-09-15 00:56 METAR KASH 150456Z AUTO 00000KT 9SM OVC003 18/18 A3013 RMK AO2 SLP207 T01780178
                 401890050 =
2019-09-15 00:39 METAR KASH 150439Z AUTO 00000KT 9SM BKN003 18/18 A3013 RMK AO2 =
2019-09-14 23:46 METAR KASH 150346Z AUTO 00000KT 10SM BKN003 BKN023 OVC047 18/18 A3014 RMK AO2
                 RAE37 CIG 003V011 P0001 =
2019-09-14 23:37 METAR KASH 150337Z AUTO 00000KT 10SM SCT003 BKN022 OVC046 18/18 A3014 RMK AO2
                 RAE37 P0001 =
2019-09-14 22:56 METAR KASH 150256Z AUTO 00000KT 6SM -RA BR OVC016 18/18 A3015 RMK AO2 RAB32
                 SLP213 P0001 60001 T01780178 58004 =
2019-09-14 21:56 METAR KASH 150156Z AUTO 00000KT 9SM OVC016 17/17 A3016 RMK AO2 SLP217 T01720172
                 =
2019-09-14 20:56 METAR KASH 150056Z 00000KT 10SM BKN022 OVC045 17/17 A3017 RMK AO2 SLP219
                 T01720172 =
2019-09-14 19:56 METAR KASH 142356Z 00000KT 10SM OVC026 18/18 A3016 RMK AO2 RAE25 SLP218 P0002
                 60006 T01780178 10189 20172 58007 =
2019-09-14 18:56 METAR KASH 142256Z 00000KT 4SM -RA BR BKN018 OVC030 18/18 A3017 RMK AO2 RAB10
                 SLP221 P0004 T01780178 =
2019-09-14 18:35 METAR KASH 142235Z 00000KT 3SM -RA BR BKN018 OVC055 18/18 A3018 RMK AO2 RAB10
                 P0003 =
2019-09-14 17:56 METAR KASH 142156Z 00000KT 10SM BKN033 OVC040 19/18 A3018 RMK AO2 SLP223
                 T01890183 =
2019-09-14 16:56 METAR KASH 142056Z 00000KT 10SM BKN036 OVC044 19/18 A3018 RMK AO2 SLP226
                 T01890183 58022 =
2019-09-14 15:56 METAR KASH 141956Z 13003KT 10SM OVC043 18/18 A3020 RMK AO2 SLP233 T01830183 =
2019-09-14 14:56 METAR KASH 141856Z 00000KT 10SM OVC042 18/18 A3023 RMK AO2 SLP241 T01780178 =
2019-09-14 13:56 METAR KASH 141756Z 00000KT 6SM BR BKN030 OVC048 17/17 A3025 RMK AO2 RAE40 SLP247
                 P0009 60009 T01720172 10178 20100 56024 =
2019-09-14 12:56 METAR KASH 141656Z VRB03KT 3SM RA BR FEW050 BKN085 OVC100 17/17 A3027 RMK AO2
                 RAB37 SLP255 P0000 T01720167 =

Support USWX by starting your Amazon purchase here.